sensor_id;sensor_type;location;lat;lon;timestamp;temperature;humidity
76120;DHT22;64852;48.092;-1.640;2023-12-22T00:02:20;12.80;99.90
76120;DHT22;64852;48.092;-1.640;2023-12-22T00:04:45;12.20;99.90
76120;DHT22;64852;48.092;-1.640;2023-12-22T00:07:11;12.30;99.90
76120;DHT22;64852;48.092;-1.640;2023-12-22T00:09:37;12.20;99.90
76120;DHT22;64852;48.092;-1.640;2023-12-22T00:12:03;12.50;99.90
76120;DHT22;64852;48.092;-1.640;2023-12-22T00:14:28;12.30;99.90
76120;DHT22;64852;48.092;-1.640;2023-12-22T00:16:54;12.40;99.90
76120;DHT22;64852;48.092;-1.640;2023-12-22T00:19:19;12.50;99.90
76120;DHT22;64852;48.092;-1.640;2023-12-22T00:21:45;12.30;99.90
76120;DHT22;64852;48.092;-1.640;2023-12-22T00:24:11;12.30;99.90
76120;DHT22;64852;48.092;-1.640;2023-12-22T00:26:36;12.40;99.90
76120;DHT22;64852;48.092;-1.640;2023-12-22T00:29:02;12.30;99.90
76120;DHT22;64852;48.092;-1.640;2023-12-22T00:31:27;12.10;99.90
76120;DHT22;64852;48.092;-1.640;2023-12-22T00:33:53;12.80;99.90
76120;DHT22;64852;48.092;-1.640;2023-12-22T00:36:19;12.20;99.90
76120;DHT22;64852;48.092;-1.640;2023-12-22T00:38:48;12.20;99.90
76120;DHT22;64852;48.092;-1.640;2023-12-22T00:41:14;12.60;99.90
76120;DHT22;64852;48.092;-1.640;2023-12-22T00:43:39;12.20;99.90
76120;DHT22;64852;48.092;-1.640;2023-12-22T00:46:05;12.10;99.90
76120;DHT22;64852;48.092;-1.640;2023-12-22T00:48:31;12.10;99.90
76120;DHT22;64852;48.092;-1.640;2023-12-22T00:50:56;12.60;99.90
76120;DHT22;64852;48.092;-1.640;2023-12-22T00:53:22;12.10;99.90
76120;DHT22;64852;48.092;-1.640;2023-12-22T00:55:48;12.10;99.90
76120;DHT22;64852;48.092;-1.640;2023-12-22T00:58:13;12.10;99.90
76120;DHT22;64852;48.092;-1.640;2023-12-22T01:00:39;12.10;99.90
76120;DHT22;64852;48.092;-1.640;2023-12-22T01:03:04;12.00;99.90
76120;DHT22;64852;48.092;-1.640;2023-12-22T01:05:30;12.10;99.90
76120;DHT22;64852;48.092;-1.640;2023-12-22T01:07:55;12.10;99.90
76120;DHT22;64852;48.092;-1.640;2023-12-22T01:10:21;12.10;99.90
76120;DHT22;64852;48.092;-1.640;2023-12-22T01:12:47;12.10;99.90
76120;DHT22;64852;48.092;-1.640;2023-12-22T01:15:12;12.20;99.90
76120;DHT22;64852;48.092;-1.640;2023-12-22T01:17:38;12.20;99.90
76120;DHT22;64852;48.092;-1.640;2023-12-22T01:20:04;12.20;99.90
76120;DHT22;64852;48.092;-1.640;2023-12-22T01:22:29;12.20;99.90
76120;DHT22;64852;48.092;-1.640;2023-12-22T01:24:56;12.20;99.90
76120;DHT22;64852;48.092;-1.640;2023-12-22T01:27:21;12.20;99.90
76120;DHT22;64852;48.092;-1.640;2023-12-22T01:29:47;12.30;99.90
76120;DHT22;64852;48.092;-1.640;2023-12-22T01:32:12;12.20;99.90
76120;DHT22;64852;48.092;-1.640;2023-12-22T01:34:38;12.30;99.90
76120;DHT22;64852;48.092;-1.640;2023-12-22T01:37:03;12.40;99.90
76120;DHT22;64852;48.092;-1.640;2023-12-22T01:39:29;11.70;99.90
76120;DHT22;64852;48.092;-1.640;2023-12-22T01:41:54;12.30;99.90
76120;DHT22;64852;48.092;-1.640;2023-12-22T01:44:20;12.30;99.90
76120;DHT22;64852;48.092;-1.640;2023-12-22T01:46:45;12.30;99.90
76120;DHT22;64852;48.092;-1.640;2023-12-22T01:49:11;12.30;99.90
76120;DHT22;64852;48.092;-1.640;2023-12-22T01:51:37;12.40;99.90
76120;DHT22;64852;48.092;-1.640;2023-12-22T01:54:05;12.30;99.90
76120;DHT22;64852;48.092;-1.640;2023-12-22T01:56:31;12.20;99.90
76120;DHT22;64852;48.092;-1.640;2023-12-22T01:58:59;12.20;99.90
76120;DHT22;64852;48.092;-1.640;2023-12-22T02:01:25;12.20;99.90
76120;DHT22;64852;48.092;-1.640;2023-12-22T02:03:51;12.20;99.90
76120;DHT22;64852;48.092;-1.640;2023-12-22T02:06:20;12.20;99.90
76120;DHT22;64852;48.092;-1.640;2023-12-22T02:08:47;12.20;99.90
76120;DHT22;64852;48.092;-1.640;2023-12-22T02:11:13;12.20;99.90
76120;DHT22;64852;48.092;-1.640;2023-12-22T02:13:39;12.40;99.90
76120;DHT22;64852;48.092;-1.640;2023-12-22T02:16:06;12.20;99.90
76120;DHT22;64852;48.092;-1.640;2023-12-22T02:18:38;12.20;99.90
76120;DHT22;64852;48.092;-1.640;2023-12-22T02:21:04;12.20;99.90
76120;DHT22;64852;48.092;-1.640;2023-12-22T02:23:30;12.70;99.90
76120;DHT22;64852;48.092;-1.640;2023-12-22T02:25:56;12.20;99.90
76120;DHT22;64852;48.092;-1.640;2023-12-22T02:28:23;12.20;99.90
76120;DHT22;64852;48.092;-1.640;2023-12-22T02:31:09;12.20;99.90
76120;DHT22;64852;48.092;-1.640;2023-12-22T02:33:35;12.10;99.90
76120;DHT22;64852;48.092;-1.640;2023-12-22T02:36:04;12.10;99.90
76120;DHT22;64852;48.092;-1.640;2023-12-22T02:38:31;12.10;99.90
76120;DHT22;64852;48.092;-1.640;2023-12-22T02:40:58;12.00;99.90
76120;DHT22;64852;48.092;-1.640;2023-12-22T02:43:23;12.00;99.90
76120;DHT22;64852;48.092;-1.640;2023-12-22T02:45:52;12.00;99.90
76120;DHT22;64852;48.092;-1.640;2023-12-22T02:48:17;12.00;99.90
76120;DHT22;64852;48.092;-1.640;2023-12-22T02:50:43;12.10;99.90
76120;DHT22;64852;48.092;-1.640;2023-12-22T02:53:09;12.00;99.90
76120;DHT22;64852;48.092;-1.640;2023-12-22T02:55:34;12.00;99.90
76120;DHT22;64852;48.092;-1.640;2023-12-22T02:58:00;12.10;99.90
76120;DHT22;64852;48.092;-1.640;2023-12-22T03:00:25;12.00;99.90
76120;DHT22;64852;48.092;-1.640;2023-12-22T03:02:50;12.10;99.90
76120;DHT22;64852;48.092;-1.640;2023-12-22T03:05:16;12.10;99.90
76120;DHT22;64852;48.092;-1.640;2023-12-22T03:07:41;12.10;99.90
76120;DHT22;64852;48.092;-1.640;2023-12-22T03:10:07;12.00;99.90
76120;DHT22;64852;48.092;-1.640;2023-12-22T03:12:33;12.10;99.90
76120;DHT22;64852;48.092;-1.640;2023-12-22T03:14:58;12.00;99.90
76120;DHT22;64852;48.092;-1.640;2023-12-22T03:17:23;12.00;99.90
76120;DHT22;64852;48.092;-1.640;2023-12-22T03:19:49;12.00;99.90
76120;DHT22;64852;48.092;-1.640;2023-12-22T03:22:14;12.00;99.90
76120;DHT22;64852;48.092;-1.640;2023-12-22T03:24:40;11.90;99.90
76120;DHT22;64852;48.092;-1.640;2023-12-22T03:27:06;12.00;99.90
76120;DHT22;64852;48.092;-1.640;2023-12-22T03:29:31;11.90;99.90
76120;DHT22;64852;48.092;-1.640;2023-12-22T03:31:57;11.90;99.90
76120;DHT22;64852;48.092;-1.640;2023-12-22T03:34:22;11.90;99.90
76120;DHT22;64852;48.092;-1.640;2023-12-22T03:36:48;12.00;99.90
76120;DHT22;64852;48.092;-1.640;2023-12-22T03:39:14;11.80;99.90
76120;DHT22;64852;48.092;-1.640;2023-12-22T03:41:40;12.60;99.90
76120;DHT22;64852;48.092;-1.640;2023-12-22T03:44:05;11.90;99.90
76120;DHT22;64852;48.092;-1.640;2023-12-22T03:46:31;11.10;99.90
76120;DHT22;64852;48.092;-1.640;2023-12-22T03:48:56;11.90;99.90
76120;DHT22;64852;48.092;-1.640;2023-12-22T03:51:22;12.00;99.90
76120;DHT22;64852;48.092;-1.640;2023-12-22T03:53:47;11.90;99.90
76120;DHT22;64852;48.092;-1.640;2023-12-22T03:56:13;11.80;99.90
76120;DHT22;64852;48.092;-1.640;2023-12-22T03:58:38;11.90;99.90
76120;DHT22;64852;48.092;-1.640;2023-12-22T04:01:04;12.60;99.90
76120;DHT22;64852;48.092;-1.640;2023-12-22T04:03:29;11.80;99.90
76120;DHT22;64852;48.092;-1.640;2023-12-22T04:05:55;11.90;99.90
76120;DHT22;64852;48.092;-1.640;2023-12-22T04:08:21;11.80;99.90
76120;DHT22;64852;48.092;-1.640;2023-12-22T04:10:46;11.80;99.90
76120;DHT22;64852;48.092;-1.640;2023-12-22T04:13:12;11.90;99.90
76120;DHT22;64852;48.092;-1.640;2023-12-22T04:15:37;11.80;99.90
76120;DHT22;64852;48.092;-1.640;2023-12-22T04:18:03;11.70;99.90
76120;DHT22;64852;48.092;-1.640;2023-12-22T04:20:29;11.80;99.90
76120;DHT22;64852;48.092;-1.640;2023-12-22T04:22:55;11.90;99.90
76120;DHT22;64852;48.092;-1.640;2023-12-22T04:25:20;11.90;99.90
76120;DHT22;64852;48.092;-1.640;2023-12-22T04:27:48;11.90;99.90
76120;DHT22;64852;48.092;-1.640;2023-12-22T04:30:15;12.00;99.90
76120;DHT22;64852;48.092;-1.640;2023-12-22T04:32:40;12.10;99.90
76120;DHT22;64852;48.092;-1.640;2023-12-22T04:35:06;12.20;99.90
76120;DHT22;64852;48.092;-1.640;2023-12-22T04:37:32;12.30;99.90
76120;DHT22;64852;48.092;-1.640;2023-12-22T04:39:58;13.00;99.90
76120;DHT22;64852;48.092;-1.640;2023-12-22T04:42:23;12.30;99.90
76120;DHT22;64852;48.092;-1.640;2023-12-22T04:44:51;12.40;99.90
76120;DHT22;64852;48.092;-1.640;2023-12-22T04:47:16;12.30;99.90
76120;DHT22;64852;48.092;-1.640;2023-12-22T04:49:42;12.50;99.90
76120;DHT22;64852;48.092;-1.640;2023-12-22T04:52:08;12.50;99.90
76120;DHT22;64852;48.092;-1.640;2023-12-22T04:54:33;12.40;99.90
76120;DHT22;64852;48.092;-1.640;2023-12-22T04:56:59;12.50;99.90
76120;DHT22;64852;48.092;-1.640;2023-12-22T04:59:25;12.50;99.90
76120;DHT22;64852;48.092;-1.640;2023-12-22T05:01:50;12.40;99.90
76120;DHT22;64852;48.092;-1.640;2023-12-22T05:04:16;12.40;99.90
76120;DHT22;64852;48.092;-1.640;2023-12-22T05:06:43;13.00;99.90
76120;DHT22;64852;48.092;-1.640;2023-12-22T05:09:08;12.30;99.90
76120;DHT22;64852;48.092;-1.640;2023-12-22T05:11:34;12.40;99.90
76120;DHT22;64852;48.092;-1.640;2023-12-22T05:14:00;12.40;99.90
76120;DHT22;64852;48.092;-1.640;2023-12-22T05:16:25;12.30;99.90
76120;DHT22;64852;48.092;-1.640;2023-12-22T05:18:51;12.40;99.90
76120;DHT22;64852;48.092;-1.640;2023-12-22T05:21:17;12.40;99.90
76120;DHT22;64852;48.092;-1.640;2023-12-22T05:23:42;12.30;99.90
76120;DHT22;64852;48.092;-1.640;2023-12-22T05:26:08;12.50;99.90
76120;DHT22;64852;48.092;-1.640;2023-12-22T05:28:33;12.50;99.90
76120;DHT22;64852;48.092;-1.640;2023-12-22T05:30:59;12.40;99.90
76120;DHT22;64852;48.092;-1.640;2023-12-22T05:33:25;12.70;99.90
76120;DHT22;64852;48.092;-1.640;2023-12-22T05:35:51;12.40;99.90
76120;DHT22;64852;48.092;-1.640;2023-12-22T05:38:17;12.40;99.90
76120;DHT22;64852;48.092;-1.640;2023-12-22T05:40:42;12.40;99.90
76120;DHT22;64852;48.092;-1.640;2023-12-22T05:43:08;12.40;99.90
76120;DHT22;64852;48.092;-1.640;2023-12-22T05:45:33;12.30;99.90
76120;DHT22;64852;48.092;-1.640;2023-12-22T05:47:59;12.40;99.90
76120;DHT22;64852;48.092;-1.640;2023-12-22T05:50:25;12.40;99.90
76120;DHT22;64852;48.092;-1.640;2023-12-22T05:52:51;12.40;99.90
76120;DHT22;64852;48.092;-1.640;2023-12-22T05:55:17;12.50;99.90
76120;DHT22;64852;48.092;-1.640;2023-12-22T05:57:42;12.50;99.90
76120;DHT22;64852;48.092;-1.640;2023-12-22T06:00:08;12.30;99.90
76120;DHT22;64852;48.092;-1.640;2023-12-22T06:02:36;12.40;99.90
76120;DHT22;64852;48.092;-1.640;2023-12-22T06:05:01;12.40;99.90
76120;DHT22;64852;48.092;-1.640;2023-12-22T06:07:27;12.50;99.90
76120;DHT22;64852;48.092;-1.640;2023-12-22T06:09:53;12.40;99.90
76120;DHT22;64852;48.092;-1.640;2023-12-22T06:12:18;12.50;99.90
76120;DHT22;64852;48.092;-1.640;2023-12-22T06:14:44;12.40;99.90
76120;DHT22;64852;48.092;-1.640;2023-12-22T06:17:09;12.50;99.90
76120;DHT22;64852;48.092;-1.640;2023-12-22T06:19:36;12.40;99.90
76120;DHT22;64852;48.092;-1.640;2023-12-22T06:22:01;12.40;99.90
76120;DHT22;64852;48.092;-1.640;2023-12-22T06:24:27;12.30;99.90
76120;DHT22;64852;48.092;-1.640;2023-12-22T06:26:52;12.20;99.90
76120;DHT22;64852;48.092;-1.640;2023-12-22T06:29:18;12.20;99.90
76120;DHT22;64852;48.092;-1.640;2023-12-22T06:31:43;12.30;99.90
76120;DHT22;64852;48.092;-1.640;2023-12-22T06:34:09;12.00;99.90
76120;DHT22;64852;48.092;-1.640;2023-12-22T06:36:34;11.90;99.90
76120;DHT22;64852;48.092;-1.640;2023-12-22T06:39:00;11.80;99.90
76120;DHT22;64852;48.092;-1.640;2023-12-22T06:41:26;11.80;99.90
76120;DHT22;64852;48.092;-1.640;2023-12-22T06:43:52;11.70;99.90
76120;DHT22;64852;48.092;-1.640;2023-12-22T06:46:18;12.30;99.90
76120;DHT22;64852;48.092;-1.640;2023-12-22T06:48:44;11.80;99.90
76120;DHT22;64852;48.092;-1.640;2023-12-22T06:53:48;11.70;99.90
76120;DHT22;64852;48.092;-1.640;2023-12-22T06:56:24;11.60;99.90
76120;DHT22;64852;48.092;-1.640;2023-12-22T06:58:50;11.60;99.90
76120;DHT22;64852;48.092;-1.640;2023-12-22T07:03:51;11.60;99.90
76120;DHT22;64852;48.092;-1.640;2023-12-22T07:06:17;11.60;99.90
76120;DHT22;64852;48.092;-1.640;2023-12-22T07:08:43;11.60;99.90
76120;DHT22;64852;48.092;-1.640;2023-12-22T07:11:09;11.90;99.90
76120;DHT22;64852;48.092;-1.640;2023-12-22T07:13:34;11.90;99.90
76120;DHT22;64852;48.092;-1.640;2023-12-22T07:16:00;11.60;99.90
76120;DHT22;64852;48.092;-1.640;2023-12-22T07:18:27;11.70;99.90
76120;DHT22;64852;48.092;-1.640;2023-12-22T07:20:59;11.60;99.90
76120;DHT22;64852;48.092;-1.640;2023-12-22T07:23:24;11.60;99.90
76120;DHT22;64852;48.092;-1.640;2023-12-22T07:25:50;12.50;99.90
76120;DHT22;64852;48.092;-1.640;2023-12-22T07:28:15;11.60;99.90
76120;DHT22;64852;48.092;-1.640;2023-12-22T07:30:41;12.60;99.90
76120;DHT22;64852;48.092;-1.640;2023-12-22T07:33:07;11.50;99.90
76120;DHT22;64852;48.092;-1.640;2023-12-22T07:35:32;11.50;99.90
76120;DHT22;64852;48.092;-1.640;2023-12-22T07:37:58;12.00;99.90
76120;DHT22;64852;48.092;-1.640;2023-12-22T07:40:23;11.60;99.90
76120;DHT22;64852;48.092;-1.640;2023-12-22T07:42:49;11.50;99.90
76120;DHT22;64852;48.092;-1.640;2023-12-22T07:45:15;11.50;99.90
76120;DHT22;64852;48.092;-1.640;2023-12-22T07:47:41;11.50;99.90
76120;DHT22;64852;48.092;-1.640;2023-12-22T07:50:07;11.50;99.90
76120;DHT22;64852;48.092;-1.640;2023-12-22T07:52:36;11.50;99.90
76120;DHT22;64852;48.092;-1.640;2023-12-22T07:55:05;11.60;99.90
76120;DHT22;64852;48.092;-1.640;2023-12-22T07:57:30;11.60;99.90
76120;DHT22;64852;48.092;-1.640;2023-12-22T07:59:56;12.00;99.90
76120;DHT22;64852;48.092;-1.640;2023-12-22T08:02:22;11.50;99.90
76120;DHT22;64852;48.092;-1.640;2023-12-22T08:04:48;11.80;99.90
76120;DHT22;64852;48.092;-1.640;2023-12-22T08:07:15;11.40;99.90
76120;DHT22;64852;48.092;-1.640;2023-12-22T08:09:41;11.40;99.90
76120;DHT22;64852;48.092;-1.640;2023-12-22T08:12:07;11.40;99.90
76120;DHT22;64852;48.092;-1.640;2023-12-22T08:14:33;11.40;99.90
76120;DHT22;64852;48.092;-1.640;2023-12-22T08:16:58;11.40;99.90
76120;DHT22;64852;48.092;-1.640;2023-12-22T08:19:24;11.80;99.90
76120;DHT22;64852;48.092;-1.640;2023-12-22T08:21:52;11.50;99.90
76120;DHT22;64852;48.092;-1.640;2023-12-22T08:24:18;11.50;99.90
76120;DHT22;64852;48.092;-1.640;2023-12-22T08:26:43;11.70;99.90
76120;DHT22;64852;48.092;-1.640;2023-12-22T08:29:09;12.20;99.90
76120;DHT22;64852;48.092;-1.640;2023-12-22T08:31:35;11.80;99.90
76120;DHT22;64852;48.092;-1.640;2023-12-22T08:34:00;11.70;99.90
76120;DHT22;64852;48.092;-1.640;2023-12-22T08:36:29;12.00;99.90
76120;DHT22;64852;48.092;-1.640;2023-12-22T08:38:54;11.60;99.90
76120;DHT22;64852;48.092;-1.640;2023-12-22T08:41:20;12.80;99.90
76120;DHT22;64852;48.092;-1.640;2023-12-22T08:43:46;11.50;99.90
76120;DHT22;64852;48.092;-1.640;2023-12-22T08:46:11;11.50;99.90
76120;DHT22;64852;48.092;-1.640;2023-12-22T08:48:38;11.50;99.90
76120;DHT22;64852;48.092;-1.640;2023-12-22T08:51:03;11.50;99.90
76120;DHT22;64852;48.092;-1.640;2023-12-22T08:53:29;11.50;99.90
76120;DHT22;64852;48.092;-1.640;2023-12-22T08:55:59;11.50;99.90
76120;DHT22;64852;48.092;-1.640;2023-12-22T08:58:26;11.60;99.90
76120;DHT22;64852;48.092;-1.640;2023-12-22T09:00:51;11.40;99.90
76120;DHT22;64852;48.092;-1.640;2023-12-22T09:03:17;11.40;99.90
76120;DHT22;64852;48.092;-1.640;2023-12-22T09:05:42;11.50;99.90
76120;DHT22;64852;48.092;-1.640;2023-12-22T09:08:08;11.40;99.90
76120;DHT22;64852;48.092;-1.640;2023-12-22T09:10:33;11.50;99.90
76120;DHT22;64852;48.092;-1.640;2023-12-22T09:13:00;11.60;99.90
76120;DHT22;64852;48.092;-1.640;2023-12-22T09:15:27;11.90;99.90
76120;DHT22;64852;48.092;-1.640;2023-12-22T09:17:53;11.70;99.90
76120;DHT22;64852;48.092;-1.640;2023-12-22T09:20:19;11.70;99.90
76120;DHT22;64852;48.092;-1.640;2023-12-22T09:22:45;12.20;99.90
76120;DHT22;64852;48.092;-1.640;2023-12-22T09:25:10;11.70;99.90
76120;DHT22;64852;48.092;-1.640;2023-12-22T09:27:36;11.70;99.90
76120;DHT22;64852;48.092;-1.640;2023-12-22T09:30:02;11.70;99.90
76120;DHT22;64852;48.092;-1.640;2023-12-22T09:32:29;11.70;99.90
76120;DHT22;64852;48.092;-1.640;2023-12-22T09:34:55;11.70;99.90
76120;DHT22;64852;48.092;-1.640;2023-12-22T09:37:24;11.70;99.90
76120;DHT22;64852;48.092;-1.640;2023-12-22T09:39:49;12.10;99.90
76120;DHT22;64852;48.092;-1.640;2023-12-22T09:42:15;11.70;99.90
76120;DHT22;64852;48.092;-1.640;2023-12-22T09:44:42;11.70;99.90
76120;DHT22;64852;48.092;-1.640;2023-12-22T09:47:09;11.70;99.90
76120;DHT22;64852;48.092;-1.640;2023-12-22T09:49:39;11.80;99.90
76120;DHT22;64852;48.092;-1.640;2023-12-22T09:52:06;11.70;99.90
76120;DHT22;64852;48.092;-1.640;2023-12-22T09:54:33;11.80;99.90
76120;DHT22;64852;48.092;-1.640;2023-12-22T09:57:00;11.90;99.90
76120;DHT22;64852;48.092;-1.640;2023-12-22T09:59:27;11.80;99.90
76120;DHT22;64852;48.092;-1.640;2023-12-22T10:01:55;11.70;99.90
76120;DHT22;64852;48.092;-1.640;2023-12-22T10:04:21;11.90;99.90
76120;DHT22;64852;48.092;-1.640;2023-12-22T10:06:48;11.70;99.90
76120;DHT22;64852;48.092;-1.640;2023-12-22T10:09:15;11.80;99.90
76120;DHT22;64852;48.092;-1.640;2023-12-22T10:11:43;11.70;99.90
76120;DHT22;64852;48.092;-1.640;2023-12-22T10:14:10;11.70;99.90
76120;DHT22;64852;48.092;-1.640;2023-12-22T10:16:36;11.90;99.90
76120;DHT22;64852;48.092;-1.640;2023-12-22T10:19:03;11.80;99.90
76120;DHT22;64852;48.092;-1.640;2023-12-22T10:21:29;12.00;99.90
76120;DHT22;64852;48.092;-1.640;2023-12-22T10:23:56;11.80;99.90
76120;DHT22;64852;48.092;-1.640;2023-12-22T10:26:22;11.80;99.90
76120;DHT22;64852;48.092;-1.640;2023-12-22T10:28:48;12.40;99.90
76120;DHT22;64852;48.092;-1.640;2023-12-22T10:31:17;11.90;99.90
76120;DHT22;64852;48.092;-1.640;2023-12-22T10:33:43;11.90;99.90
76120;DHT22;64852;48.092;-1.640;2023-12-22T10:36:09;11.80;99.90
76120;DHT22;64852;48.092;-1.640;2023-12-22T10:38:35;11.90;99.90
76120;DHT22;64852;48.092;-1.640;2023-12-22T10:41:05;11.90;99.90
76120;DHT22;64852;48.092;-1.640;2023-12-22T10:43:40;11.90;99.90
76120;DHT22;64852;48.092;-1.640;2023-12-22T10:46:09;12.00;99.90
76120;DHT22;64852;48.092;-1.640;2023-12-22T10:48:36;11.90;99.90
76120;DHT22;64852;48.092;-1.640;2023-12-22T10:51:02;12.80;99.90
76120;DHT22;64852;48.092;-1.640;2023-12-22T10:53:27;12.00;99.90
76120;DHT22;64852;48.092;-1.640;2023-12-22T10:55:53;12.10;99.90
76120;DHT22;64852;48.092;-1.640;2023-12-22T10:58:19;12.70;99.90
76120;DHT22;64852;48.092;-1.640;2023-12-22T11:00:45;12.20;99.90
76120;DHT22;64852;48.092;-1.640;2023-12-22T11:03:17;12.20;99.90
76120;DHT22;64852;48.092;-1.640;2023-12-22T11:05:48;12.20;99.90
76120;DHT22;64852;48.092;-1.640;2023-12-22T11:08:15;12.20;99.90
76120;DHT22;64852;48.092;-1.640;2023-12-22T11:10:44;12.20;99.90
76120;DHT22;64852;48.092;-1.640;2023-12-22T11:13:13;12.40;99.90
76120;DHT22;64852;48.092;-1.640;2023-12-22T11:15:40;12.40;99.90
76120;DHT22;64852;48.092;-1.640;2023-12-22T11:18:08;12.20;99.90
76120;DHT22;64852;48.092;-1.640;2023-12-22T11:20:35;12.20;99.90
76120;DHT22;64852;48.092;-1.640;2023-12-22T11:23:02;12.30;99.90
76120;DHT22;64852;48.092;-1.640;2023-12-22T11:25:30;12.30;99.90
76120;DHT22;64852;48.092;-1.640;2023-12-22T11:27:59;12.30;99.90
76120;DHT22;64852;48.092;-1.640;2023-12-22T11:30:27;12.30;99.90
76120;DHT22;64852;48.092;-1.640;2023-12-22T11:32:56;12.20;99.90
76120;DHT22;64852;48.092;-1.640;2023-12-22T11:35:23;12.20;99.90
76120;DHT22;64852;48.092;-1.640;2023-12-22T11:37:50;12.30;99.90
76120;DHT22;64852;48.092;-1.640;2023-12-22T11:40:17;13.00;99.90
76120;DHT22;64852;48.092;-1.640;2023-12-22T11:42:46;12.50;99.90
76120;DHT22;64852;48.092;-1.640;2023-12-22T11:45:13;12.60;99.90
76120;DHT22;64852;48.092;-1.640;2023-12-22T11:47:42;13.20;99.90
76120;DHT22;64852;48.092;-1.640;2023-12-22T11:50:11;12.70;99.90
76120;DHT22;64852;48.092;-1.640;2023-12-22T11:52:37;13.00;99.90
76120;DHT22;64852;48.092;-1.640;2023-12-22T11:55:04;12.60;99.90
76120;DHT22;64852;48.092;-1.640;2023-12-22T11:57:33;12.60;99.90
76120;DHT22;64852;48.092;-1.640;2023-12-22T12:02:55;12.40;99.90
76120;DHT22;64852;48.092;-1.640;2023-12-22T12:05:22;12.50;99.90
76120;DHT22;64852;48.092;-1.640;2023-12-22T12:07:48;12.50;99.90
76120;DHT22;64852;48.092;-1.640;2023-12-22T12:15:34;12.40;99.90
76120;DHT22;64852;48.092;-1.640;2023-12-22T12:18:01;12.40;99.90
76120;DHT22;64852;48.092;-1.640;2023-12-22T12:20:28;12.80;99.90
76120;DHT22;64852;48.092;-1.640;2023-12-22T12:22:56;12.50;99.90
76120;DHT22;64852;48.092;-1.640;2023-12-22T12:25:23;12.50;99.90
76120;DHT22;64852;48.092;-1.640;2023-12-22T12:28:03;12.40;99.90
76120;DHT22;64852;48.092;-1.640;2023-12-22T12:30:30;12.40;99.90
76120;DHT22;64852;48.092;-1.640;2023-12-22T12:33:08;12.30;99.90
76120;DHT22;64852;48.092;-1.640;2023-12-22T12:35:34;12.50;99.90
76120;DHT22;64852;48.092;-1.640;2023-12-22T12:38:00;12.40;99.90
76120;DHT22;64852;48.092;-1.640;2023-12-22T12:40:27;12.30;99.90
76120;DHT22;64852;48.092;-1.640;2023-12-22T12:43:01;12.40;99.90
76120;DHT22;64852;48.092;-1.640;2023-12-22T12:45:28;12.80;99.90
76120;DHT22;64852;48.092;-1.640;2023-12-22T12:48:02;12.50;99.90
76120;DHT22;64852;48.092;-1.640;2023-12-22T12:50:28;12.60;99.90
76120;DHT22;64852;48.092;-1.640;2023-12-22T12:52:54;12.70;99.90
76120;DHT22;64852;48.092;-1.640;2023-12-22T12:55:22;12.70;99.90
76120;DHT22;64852;48.092;-1.640;2023-12-22T12:57:49;12.60;99.90
76120;DHT22;64852;48.092;-1.640;2023-12-22T13:00:37;13.00;99.90
76120;DHT22;64852;48.092;-1.640;2023-12-22T13:03:04;12.60;99.90
76120;DHT22;64852;48.092;-1.640;2023-12-22T13:05:30;12.70;99.90
76120;DHT22;64852;48.092;-1.640;2023-12-22T13:08:12;12.80;99.90
76120;DHT22;64852;48.092;-1.640;2023-12-22T13:10:40;12.70;99.90
76120;DHT22;64852;48.092;-1.640;2023-12-22T13:13:06;12.70;99.90
76120;DHT22;64852;48.092;-1.640;2023-12-22T13:15:33;12.70;99.90
76120;DHT22;64852;48.092;-1.640;2023-12-22T13:17:58;12.70;99.90
76120;DHT22;64852;48.092;-1.640;2023-12-22T13:20:24;12.70;99.90
76120;DHT22;64852;48.092;-1.640;2023-12-22T13:22:50;12.60;99.90
76120;DHT22;64852;48.092;-1.640;2023-12-22T13:25:16;12.60;99.90
76120;DHT22;64852;48.092;-1.640;2023-12-22T13:27:46;12.60;99.90
76120;DHT22;64852;48.092;-1.640;2023-12-22T13:30:13;12.50;99.90
76120;DHT22;64852;48.092;-1.640;2023-12-22T13:32:38;12.60;99.90
76120;DHT22;64852;48.092;-1.640;2023-12-22T13:35:04;12.60;99.90
76120;DHT22;64852;48.092;-1.640;2023-12-22T13:37:30;12.40;99.90
76120;DHT22;64852;48.092;-1.640;2023-12-22T13:39:56;12.40;99.90
76120;DHT22;64852;48.092;-1.640;2023-12-22T13:42:23;12.60;99.90
76120;DHT22;64852;48.092;-1.640;2023-12-22T13:44:50;12.50;99.90
76120;DHT22;64852;48.092;-1.640;2023-12-22T13:47:18;12.50;99.90
76120;DHT22;64852;48.092;-1.640;2023-12-22T13:49:48;12.50;99.90
76120;DHT22;64852;48.092;-1.640;2023-12-22T13:52:26;12.60;99.90
76120;DHT22;64852;48.092;-1.640;2023-12-22T13:54:53;12.50;99.90
76120;DHT22;64852;48.092;-1.640;2023-12-22T13:57:21;12.60;99.90
76120;DHT22;64852;48.092;-1.640;2023-12-22T13:59:47;12.50;99.90
76120;DHT22;64852;48.092;-1.640;2023-12-22T14:02:13;12.50;99.90
76120;DHT22;64852;48.092;-1.640;2023-12-22T14:04:38;12.50;99.90
76120;DHT22;64852;48.092;-1.640;2023-12-22T14:07:04;12.40;99.90
76120;DHT22;64852;48.092;-1.640;2023-12-22T14:09:29;12.40;99.90
76120;DHT22;64852;48.092;-1.640;2023-12-22T14:11:58;12.40;99.90
76120;DHT22;64852;48.092;-1.640;2023-12-22T14:14:24;12.40;99.90
76120;DHT22;64852;48.092;-1.640;2023-12-22T14:16:50;12.40;99.90
76120;DHT22;64852;48.092;-1.640;2023-12-22T14:19:15;12.40;99.90
76120;DHT22;64852;48.092;-1.640;2023-12-22T14:21:41;12.30;99.90
76120;DHT22;64852;48.092;-1.640;2023-12-22T14:24:07;12.30;99.90
76120;DHT22;64852;48.092;-1.640;2023-12-22T14:26:33;12.40;99.90
76120;DHT22;64852;48.092;-1.640;2023-12-22T14:28:58;12.30;99.90
76120;DHT22;64852;48.092;-1.640;2023-12-22T14:31:24;12.30;99.90
76120;DHT22;64852;48.092;-1.640;2023-12-22T14:33:49;12.40;99.90
76120;DHT22;64852;48.092;-1.640;2023-12-22T14:36:15;12.30;99.90
76120;DHT22;64852;48.092;-1.640;2023-12-22T14:38:40;12.30;99.90
76120;DHT22;64852;48.092;-1.640;2023-12-22T14:41:06;12.40;99.90
76120;DHT22;64852;48.092;-1.640;2023-12-22T14:43:32;12.30;99.90
76120;DHT22;64852;48.092;-1.640;2023-12-22T14:45:57;12.20;99.90
76120;DHT22;64852;48.092;-1.640;2023-12-22T14:48:23;12.20;99.90
76120;DHT22;64852;48.092;-1.640;2023-12-22T14:50:48;12.30;99.90
76120;DHT22;64852;48.092;-1.640;2023-12-22T14:53:14;12.20;99.90
76120;DHT22;64852;48.092;-1.640;2023-12-22T14:55:40;12.30;99.90
76120;DHT22;64852;48.092;-1.640;2023-12-22T14:58:06;12.20;99.90
76120;DHT22;64852;48.092;-1.640;2023-12-22T15:00:33;12.20;99.90
76120;DHT22;64852;48.092;-1.640;2023-12-22T15:02:58;12.20;99.90
76120;DHT22;64852;48.092;-1.640;2023-12-22T15:05:24;12.20;99.90
76120;DHT22;64852;48.092;-1.640;2023-12-22T15:07:54;12.20;99.90
76120;DHT22;64852;48.092;-1.640;2023-12-22T15:10:20;12.40;99.90
76120;DHT22;64852;48.092;-1.640;2023-12-22T15:12:47;12.20;99.90
76120;DHT22;64852;48.092;-1.640;2023-12-22T15:15:14;12.00;99.90
76120;DHT22;64852;48.092;-1.640;2023-12-22T15:17:39;12.00;99.90
76120;DHT22;64852;48.092;-1.640;2023-12-22T15:20:05;11.90;99.90
76120;DHT22;64852;48.092;-1.640;2023-12-22T15:22:33;11.90;99.90
76120;DHT22;64852;48.092;-1.640;2023-12-22T15:24:59;11.80;99.90